Thursday, January 18, 2018, 8:55 PM EST
Back to Local

KHEF, Manassas, Manassas Regional Airport/harry P. Davis Field

Location: Manassas, VA, United States Lat: 38.717
Local Time: 8:55 PM EST ( 1:55 GMT) Lon: -77.517
Time Zone: US/Eastern Elev: 193 ft

Show me the last for .
Show Decoded

2018-01-18 19:56 METAR KHEF 190056Z 16003KT 10SM CLR M03/M09 A3010 RMK AO2 SLP205 T10331089
                 FZRANO PNO $ =
2018-01-18 18:56 METAR KHEF 182356Z 00000KT 10SM CLR M02/M09 A3009 RMK AO2 SLP200 6//// T10171089
                 10078 21033 53016 FZRANO PNO $ =
2018-01-18 17:56 METAR KHEF 182256Z 00000KT 10SM CLR 01/M11 A3007 RMK AO2 SLP194 T00061111 FZRANO
                 PNO $ =
2018-01-18 16:56 METAR KHEF 182156Z 18004KT 10SM CLR 06/M13 A3005 RMK AO2 SLP189 T00561128 PNO $
                 =
2018-01-18 15:56 METAR KHEF 182056Z 23004KT 10SM CLR 07/M14 A3004 RMK AO2 SLP185 6//// T00721139
                 56021 PNO $ =
2018-01-18 14:56 METAR KHEF 181956Z 30011G16KT 10SM CLR 08/M15 A3005 RMK AO2 SLP187 T00781150 PNO
                 $ =
2018-01-18 13:56 METAR KHEF 181856Z 25008G16KT 10SM CLR 07/M14 A3007 RMK AO2 SLP193 T00671144 PNO
                 $ =
2018-01-18 12:56 METAR KHEF 181756Z 27004KT 10SM CLR 06/M14 A3010 RMK AO2 SLP206 6//// T00561139
                 10056 21122 58034 PNO $ =
2018-01-18 11:56 METAR KHEF 181656Z 31011G19KT 10SM CLR 04/M14 A3014 RMK AO2 SLP220 T00391144 PNO
                 $ =
2018-01-18 10:56 METAR KHEF 181556Z 32012KT 10SM CLR 01/M14 A3019 RMK AO2 SLP234 T00111144 FZRANO
                 PNO $ =
2018-01-18 09:56 METAR KHEF 181456Z 00000KT 10SM CLR M01/M12 A3020 RMK AO2 SLP239 6//// T10061122
                 55001 FZRANO PNO $ =
2018-01-18 08:56 METAR KHEF 181356Z VRB03KT 10SM CLR M03/M10 A3020 RMK AO2 SLP239 T10331100
                 FZRANO PNO $ =
2018-01-18 07:56 METAR KHEF 181256Z 02003KT 10SM CLR M11/M14 A3021 RMK AO2 SLP241 T11061144
                 FZRANO PNO $ =
2018-01-18 06:56 METAR KHEF 181156Z 00000KT 10SM CLR M12/M16 A3021 RMK AO2 SLP242 6//// 7////
                 T11171161 11078 21117 53006 FZRANO PNO $ =
2018-01-18 05:56 METAR KHEF 181056Z AUTO 00000KT 10SM CLR M11/M16 A3019 RMK AO2 SLP236 T11061161
                 FZRANO PNO $ =
2018-01-18 04:56 METAR KHEF 180956Z AUTO 36006KT 10SM CLR M08/M14 A3018 RMK AO2 SLP232 T10831144
                 FZRANO PNO $ =
2018-01-18 03:56 METAR KHEF 180856Z AUTO 34004KT 10SM CLR M09/M14 A3019 RMK AO2 SLP235 6////
                 T10891139 56029 FZRANO PNO $ =
2018-01-18 02:56 METAR KHEF 180756Z AUTO 35008KT 10SM CLR M09/M13 A3020 RMK AO2 SLP239 T10941133
                 FZRANO PNO $ =
2018-01-18 01:56 METAR KHEF 180656Z AUTO 36006KT 10SM CLR M09/M14 A3024 RMK AO2 SLP253 T10941139
                 FZRANO PNO $ =
2018-01-18 00:56 METAR KHEF 180556Z AUTO 35006KT 10SM CLR M09/M14 A3028 RMK AO2 SLP265 6////
                 T10891139 11056 21089 58017 FZRANO PNO $ =
2018-01-17 23:56 METAR KHEF 180456Z AUTO 36007KT 10SM CLR M09/M14 A3031 RMK AO2 SLP275 T10891139
                 FZRANO PNO $ =
2018-01-17 22:56 METAR KHEF 180356Z AUTO 34010G19KT 10SM SCT090 M08/M14 A3032 RMK AO2 SLP278
                 T10781144 400111078 FZRANO PNO $ =
2018-01-17 21:56 METAR KHEF 180256Z 34013KT 10SM OVC070 M07/M13 A3033 RMK AO2 SLP282 6////
                 T10671133 56002 FZRANO PNO $ =
2018-01-17 20:56 METAR KHEF 180156Z 34009KT 10SM OVC070 M06/M13 A3033 RMK AO2 SLP283 T10561133
                 FZRANO PNO $ =

Support USWX by starting your Amazon purchase here.